sensor_id;sensor_type;location;lat;lon;timestamp;P1;durP1;ratioP1;P2;durP2;ratioP2
13891;SDS011;7016;48.172;8.058;2023-03-15T00:01:03;5.28;;;2.55;;
13891;SDS011;7016;48.172;8.058;2023-03-15T00:03:33;5.30;;;2.88;;
13891;SDS011;7016;48.172;8.058;2023-03-15T00:06:01;6.20;;;2.70;;
13891;SDS011;7016;48.172;8.058;2023-03-15T00:08:28;3.47;;;2.47;;
13891;SDS011;7016;48.172;8.058;2023-03-15T00:10:57;4.18;;;3.00;;
13891;SDS011;7016;48.172;8.058;2023-03-15T00:13:23;9.77;;;3.00;;
13891;SDS011;7016;48.172;8.058;2023-03-15T00:15:50;6.97;;;3.08;;
13891;SDS011;7016;48.172;8.058;2023-03-15T00:18:19;6.25;;;2.97;;
13891;SDS011;7016;48.172;8.058;2023-03-15T00:20:46;5.47;;;2.60;;
13891;SDS011;7016;48.172;8.058;2023-03-15T00:23:12;6.22;;;3.13;;
13891;SDS011;7016;48.172;8.058;2023-03-15T00:25:39;4.30;;;2.55;;
13891;SDS011;7016;48.172;8.058;2023-03-15T00:28:07;3.33;;;2.25;;
13891;SDS011;7016;48.172;8.058;2023-03-15T00:30:33;4.07;;;2.38;;
13891;SDS011;7016;48.172;8.058;2023-03-15T00:32:58;3.75;;;2.05;;
13891;SDS011;7016;48.172;8.058;2023-03-15T00:35:24;3.60;;;2.00;;
13891;SDS011;7016;48.172;8.058;2023-03-15T00:37:53;6.70;;;2.05;;
13891;SDS011;7016;48.172;8.058;2023-03-15T00:40:20;5.93;;;2.00;;
13891;SDS011;7016;48.172;8.058;2023-03-15T00:42:46;4.25;;;1.45;;
13891;SDS011;7016;48.172;8.058;2023-03-15T00:45:16;3.30;;;1.60;;
13891;SDS011;7016;48.172;8.058;2023-03-15T00:47:43;3.58;;;1.60;;
13891;SDS011;7016;48.172;8.058;2023-03-15T00:50:09;5.00;;;1.80;;
13891;SDS011;7016;48.172;8.058;2023-03-15T00:52:35;2.78;;;1.60;;
13891;SDS011;7016;48.172;8.058;2023-03-15T00:55:02;4.50;;;1.65;;
13891;SDS011;7016;48.172;8.058;2023-03-15T00:57:29;4.38;;;1.67;;
13891;SDS011;7016;48.172;8.058;2023-03-15T00:59:58;6.72;;;1.80;;
13891;SDS011;7016;48.172;8.058;2023-03-15T01:02:24;4.28;;;1.77;;
13891;SDS011;7016;48.172;8.058;2023-03-15T01:04:49;4.03;;;1.50;;
13891;SDS011;7016;48.172;8.058;2023-03-15T01:07:15;5.82;;;1.90;;
13891;SDS011;7016;48.172;8.058;2023-03-15T01:09:41;4.32;;;1.52;;
13891;SDS011;7016;48.172;8.058;2023-03-15T01:12:08;3.60;;;1.33;;
13891;SDS011;7016;48.172;8.058;2023-03-15T01:14:34;7.78;;;2.10;;
13891;SDS011;7016;48.172;8.058;2023-03-15T01:17:02;3.83;;;1.50;;
13891;SDS011;7016;48.172;8.058;2023-03-15T01:19:27;7.10;;;1.70;;
13891;SDS011;7016;48.172;8.058;2023-03-15T01:21:53;3.10;;;1.60;;
13891;SDS011;7016;48.172;8.058;2023-03-15T01:24:19;5.63;;;2.20;;
13891;SDS011;7016;48.172;8.058;2023-03-15T01:26:44;8.93;;;2.88;;
13891;SDS011;7016;48.172;8.058;2023-03-15T01:29:10;10.15;;;4.00;;
13891;SDS011;7016;48.172;8.058;2023-03-15T01:31:37;13.77;;;3.97;;
13891;SDS011;7016;48.172;8.058;2023-03-15T01:34:03;15.90;;;6.15;;
13891;SDS011;7016;48.172;8.058;2023-03-15T01:36:29;8.70;;;3.67;;
13891;SDS011;7016;48.172;8.058;2023-03-15T01:38:55;9.48;;;3.97;;
13891;SDS011;7016;48.172;8.058;2023-03-15T01:41:20;8.95;;;3.72;;
13891;SDS011;7016;48.172;8.058;2023-03-15T01:43:47;5.45;;;3.35;;
13891;SDS011;7016;48.172;8.058;2023-03-15T01:56:39;5.88;;;3.05;;
13891;SDS011;7016;48.172;8.058;2023-03-15T01:59:30;6.18;;;3.20;;
13891;SDS011;7016;48.172;8.058;2023-03-15T02:02:20;6.32;;;3.28;;
13891;SDS011;7016;48.172;8.058;2023-03-15T02:05:08;7.18;;;2.65;;
13891;SDS011;7016;48.172;8.058;2023-03-15T02:07:57;7.85;;;2.95;;
13891;SDS011;7016;48.172;8.058;2023-03-15T02:10:48;9.40;;;3.25;;
13891;SDS011;7016;48.172;8.058;2023-03-15T02:13:37;5.18;;;3.08;;
13891;SDS011;7016;48.172;8.058;2023-03-15T02:16:03;6.03;;;2.90;;
13891;SDS011;7016;48.172;8.058;2023-03-15T02:18:31;10.00;;;3.15;;
13891;SDS011;7016;48.172;8.058;2023-03-15T02:23:46;6.80;;;2.90;;
13891;SDS011;7016;48.172;8.058;2023-03-15T02:26:25;7.65;;;3.35;;
13891;SDS011;7016;48.172;8.058;2023-03-15T02:29:04;5.95;;;2.75;;
13891;SDS011;7016;48.172;8.058;2023-03-15T02:31:30;6.25;;;3.22;;
13891;SDS011;7016;48.172;8.058;2023-03-15T02:34:02;6.60;;;3.47;;
13891;SDS011;7016;48.172;8.058;2023-03-15T02:36:29;6.05;;;3.25;;
13891;SDS011;7016;48.172;8.058;2023-03-15T02:38:58;5.40;;;3.15;;
13891;SDS011;7016;48.172;8.058;2023-03-15T02:41:28;5.55;;;2.90;;
13891;SDS011;7016;48.172;8.058;2023-03-15T02:43:59;7.18;;;3.25;;
13891;SDS011;7016;48.172;8.058;2023-03-15T02:46:30;4.38;;;2.97;;
13891;SDS011;7016;48.172;8.058;2023-03-15T02:48:56;3.80;;;2.65;;
13891;SDS011;7016;48.172;8.058;2023-03-15T02:51:25;5.30;;;2.75;;
13891;SDS011;7016;48.172;8.058;2023-03-15T02:53:52;10.02;;;3.50;;
13891;SDS011;7016;48.172;8.058;2023-03-15T02:56:18;6.15;;;3.28;;
13891;SDS011;7016;48.172;8.058;2023-03-15T02:58:44;8.95;;;4.05;;
13891;SDS011;7016;48.172;8.058;2023-03-15T03:01:10;11.60;;;3.97;;
13891;SDS011;7016;48.172;8.058;2023-03-15T03:03:38;5.47;;;3.42;;
13891;SDS011;7016;48.172;8.058;2023-03-15T03:06:09;6.63;;;3.38;;
13891;SDS011;7016;48.172;8.058;2023-03-15T03:08:35;6.20;;;4.07;;
13891;SDS011;7016;48.172;8.058;2023-03-15T03:11:01;7.63;;;3.38;;
13891;SDS011;7016;48.172;8.058;2023-03-15T03:13:27;6.90;;;3.92;;
13891;SDS011;7016;48.172;8.058;2023-03-15T03:15:53;7.00;;;3.80;;
13891;SDS011;7016;48.172;8.058;2023-03-15T03:18:24;7.55;;;3.35;;
13891;SDS011;7016;48.172;8.058;2023-03-15T03:20:53;5.18;;;3.50;;
13891;SDS011;7016;48.172;8.058;2023-03-15T03:23:20;8.05;;;3.33;;
13891;SDS011;7016;48.172;8.058;2023-03-15T03:25:46;18.08;;;7.13;;
13891;SDS011;7016;48.172;8.058;2023-03-15T03:28:11;22.70;;;8.32;;
13891;SDS011;7016;48.172;8.058;2023-03-15T03:30:37;13.95;;;5.60;;
13891;SDS011;7016;48.172;8.058;2023-03-15T03:33:03;5.95;;;4.00;;
13891;SDS011;7016;48.172;8.058;2023-03-15T03:35:30;12.27;;;4.30;;
13891;SDS011;7016;48.172;8.058;2023-03-15T03:37:56;7.85;;;3.88;;
13891;SDS011;7016;48.172;8.058;2023-03-15T03:40:21;8.35;;;4.22;;
13891;SDS011;7016;48.172;8.058;2023-03-15T03:42:47;8.18;;;4.22;;
13891;SDS011;7016;48.172;8.058;2023-03-15T03:45:13;7.95;;;5.10;;
13891;SDS011;7016;48.172;8.058;2023-03-15T03:47:38;17.88;;;6.28;;
13891;SDS011;7016;48.172;8.058;2023-03-15T03:50:04;10.48;;;5.90;;
13891;SDS011;7016;48.172;8.058;2023-03-15T03:52:30;9.48;;;5.80;;
13891;SDS011;7016;48.172;8.058;2023-03-15T03:54:56;11.15;;;6.65;;
13891;SDS011;7016;48.172;8.058;2023-03-15T03:57:22;11.52;;;7.22;;
13891;SDS011;7016;48.172;8.058;2023-03-15T03:59:47;11.63;;;7.07;;
13891;SDS011;7016;48.172;8.058;2023-03-15T04:02:13;11.40;;;6.38;;
13891;SDS011;7016;48.172;8.058;2023-03-15T04:04:39;24.10;;;6.07;;
13891;SDS011;7016;48.172;8.058;2023-03-15T04:07:06;8.93;;;5.50;;
13891;SDS011;7016;48.172;8.058;2023-03-15T04:09:32;12.70;;;6.60;;
13891;SDS011;7016;48.172;8.058;2023-03-15T04:12:01;11.02;;;7.00;;
13891;SDS011;7016;48.172;8.058;2023-03-15T04:14:28;13.85;;;7.20;;
13891;SDS011;7016;48.172;8.058;2023-03-15T04:16:53;10.73;;;6.35;;
13891;SDS011;7016;48.172;8.058;2023-03-15T04:19:19;14.57;;;7.13;;
13891;SDS011;7016;48.172;8.058;2023-03-15T04:21:45;12.73;;;8.00;;
13891;SDS011;7016;48.172;8.058;2023-03-15T04:24:11;14.80;;;8.57;;
13891;SDS011;7016;48.172;8.058;2023-03-15T04:26:38;19.30;;;9.55;;
13891;SDS011;7016;48.172;8.058;2023-03-15T04:29:04;25.17;;;9.55;;
13891;SDS011;7016;48.172;8.058;2023-03-15T04:31:29;11.18;;;7.63;;
13891;SDS011;7016;48.172;8.058;2023-03-15T04:34:01;20.60;;;9.65;;
13891;SDS011;7016;48.172;8.058;2023-03-15T04:36:28;55.97;;;9.73;;
13891;SDS011;7016;48.172;8.058;2023-03-15T04:38:54;21.55;;;9.30;;
13891;SDS011;7016;48.172;8.058;2023-03-15T04:41:30;11.88;;;8.05;;
13891;SDS011;7016;48.172;8.058;2023-03-15T04:43:58;19.88;;;10.73;;
13891;SDS011;7016;48.172;8.058;2023-03-15T04:46:25;14.63;;;9.77;;
13891;SDS011;7016;48.172;8.058;2023-03-15T04:48:50;36.58;;;9.45;;
13891;SDS011;7016;48.172;8.058;2023-03-15T04:51:16;26.25;;;11.07;;
13891;SDS011;7016;48.172;8.058;2023-03-15T04:53:42;15.27;;;7.00;;
13891;SDS011;7016;48.172;8.058;2023-03-15T04:56:07;10.82;;;6.93;;
13891;SDS011;7016;48.172;8.058;2023-03-15T04:58:33;17.25;;;7.32;;
13891;SDS011;7016;48.172;8.058;2023-03-15T05:00:58;15.48;;;7.47;;
13891;SDS011;7016;48.172;8.058;2023-03-15T05:03:24;145.10;;;12.02;;
13891;SDS011;7016;48.172;8.058;2023-03-15T05:05:50;17.58;;;10.07;;
13891;SDS011;7016;48.172;8.058;2023-03-15T05:08:15;44.88;;;11.15;;
13891;SDS011;7016;48.172;8.058;2023-03-15T05:10:41;143.52;;;18.35;;
13891;SDS011;7016;48.172;8.058;2023-03-15T05:13:07;89.68;;;18.58;;
13891;SDS011;7016;48.172;8.058;2023-03-15T05:15:32;190.23;;;22.90;;
13891;SDS011;7016;48.172;8.058;2023-03-15T05:17:58;33.63;;;16.73;;
13891;SDS011;7016;48.172;8.058;2023-03-15T05:20:24;166.20;;;17.40;;
13891;SDS011;7016;48.172;8.058;2023-03-15T05:22:50;67.25;;;13.45;;
13891;SDS011;7016;48.172;8.058;2023-03-15T05:25:17;31.63;;;11.88;;
13891;SDS011;7016;48.172;8.058;2023-03-15T05:27:43;108.07;;;12.30;;
13891;SDS011;7016;48.172;8.058;2023-03-15T05:30:10;54.35;;;14.00;;
13891;SDS011;7016;48.172;8.058;2023-03-15T05:32:38;84.55;;;16.75;;
13891;SDS011;7016;48.172;8.058;2023-03-15T05:35:08;39.80;;;15.73;;
13891;SDS011;7016;48.172;8.058;2023-03-15T05:37:34;42.10;;;11.05;;
13891;SDS011;7016;48.172;8.058;2023-03-15T05:40:00;39.05;;;10.02;;
13891;SDS011;7016;48.172;8.058;2023-03-15T05:42:26;23.55;;;10.00;;
13891;SDS011;7016;48.172;8.058;2023-03-15T05:44:53;25.35;;;9.50;;
13891;SDS011;7016;48.172;8.058;2023-03-15T05:47:20;20.13;;;9.52;;
13891;SDS011;7016;48.172;8.058;2023-03-15T05:49:47;19.30;;;8.50;;
13891;SDS011;7016;48.172;8.058;2023-03-15T05:52:13;40.80;;;8.25;;
13891;SDS011;7016;48.172;8.058;2023-03-15T05:54:39;23.35;;;8.95;;
13891;SDS011;7016;48.172;8.058;2023-03-15T05:57:05;21.83;;;7.75;;
13891;SDS011;7016;48.172;8.058;2023-03-15T05:59:31;41.70;;;8.48;;
13891;SDS011;7016;48.172;8.058;2023-03-15T06:01:57;16.48;;;7.88;;
13891;SDS011;7016;48.172;8.058;2023-03-15T06:04:23;19.05;;;7.20;;
13891;SDS011;7016;48.172;8.058;2023-03-15T06:06:49;20.80;;;7.22;;
13891;SDS011;7016;48.172;8.058;2023-03-15T06:09:15;36.17;;;7.90;;
13891;SDS011;7016;48.172;8.058;2023-03-15T06:11:41;16.30;;;6.97;;
13891;SDS011;7016;48.172;8.058;2023-03-15T06:14:07;20.60;;;6.78;;
13891;SDS011;7016;48.172;8.058;2023-03-15T06:16:33;22.13;;;11.93;;
13891;SDS011;7016;48.172;8.058;2023-03-15T06:18:58;20.52;;;8.13;;
13891;SDS011;7016;48.172;8.058;2023-03-15T06:21:24;38.25;;;6.60;;
13891;SDS011;7016;48.172;8.058;2023-03-15T06:23:50;12.48;;;5.40;;
13891;SDS011;7016;48.172;8.058;2023-03-15T06:26:16;10.23;;;5.00;;
13891;SDS011;7016;48.172;8.058;2023-03-15T06:28:43;9.65;;;5.55;;
13891;SDS011;7016;48.172;8.058;2023-03-15T06:31:10;14.63;;;5.53;;
13891;SDS011;7016;48.172;8.058;2023-03-15T06:33:36;14.40;;;7.47;;
13891;SDS011;7016;48.172;8.058;2023-03-15T06:36:03;10.70;;;5.43;;
13891;SDS011;7016;48.172;8.058;2023-03-15T06:38:29;14.50;;;4.95;;
13891;SDS011;7016;48.172;8.058;2023-03-15T06:40:56;12.18;;;5.57;;
13891;SDS011;7016;48.172;8.058;2023-03-15T06:43:25;65.05;;;11.93;;
13891;SDS011;7016;48.172;8.058;2023-03-15T06:45:51;23.73;;;11.15;;
13891;SDS011;7016;48.172;8.058;2023-03-15T06:48:20;13.32;;;6.90;;
13891;SDS011;7016;48.172;8.058;2023-03-15T06:50:46;15.52;;;7.63;;
13891;SDS011;7016;48.172;8.058;2023-03-15T06:53:12;24.55;;;10.70;;
13891;SDS011;7016;48.172;8.058;2023-03-15T06:55:38;16.83;;;9.48;;
13891;SDS011;7016;48.172;8.058;2023-03-15T06:58:03;24.92;;;10.43;;
13891;SDS011;7016;48.172;8.058;2023-03-15T07:00:29;19.83;;;9.63;;
13891;SDS011;7016;48.172;8.058;2023-03-15T07:02:55;20.67;;;10.07;;
13891;SDS011;7016;48.172;8.058;2023-03-15T07:05:20;20.80;;;10.15;;
13891;SDS011;7016;48.172;8.058;2023-03-15T07:07:46;18.85;;;8.70;;
13891;SDS011;7016;48.172;8.058;2023-03-15T07:10:12;21.45;;;10.68;;
13891;SDS011;7016;48.172;8.058;2023-03-15T07:12:37;23.63;;;11.68;;
13891;SDS011;7016;48.172;8.058;2023-03-15T07:15:03;30.40;;;11.50;;
13891;SDS011;7016;48.172;8.058;2023-03-15T07:17:29;45.67;;;12.02;;
13891;SDS011;7016;48.172;8.058;2023-03-15T07:19:55;29.67;;;12.32;;
13891;SDS011;7016;48.172;8.058;2023-03-15T07:22:21;29.63;;;13.13;;
13891;SDS011;7016;48.172;8.058;2023-03-15T07:24:47;23.42;;;11.25;;
13891;SDS011;7016;48.172;8.058;2023-03-15T07:27:13;24.33;;;10.93;;
13891;SDS011;7016;48.172;8.058;2023-03-15T07:29:39;21.63;;;11.63;;
13891;SDS011;7016;48.172;8.058;2023-03-15T07:32:05;21.23;;;12.25;;
13891;SDS011;7016;48.172;8.058;2023-03-15T07:34:31;25.83;;;12.07;;
13891;SDS011;7016;48.172;8.058;2023-03-15T07:36:57;20.95;;;11.85;;
13891;SDS011;7016;48.172;8.058;2023-03-15T07:39:22;24.45;;;11.13;;
13891;SDS011;7016;48.172;8.058;2023-03-15T07:41:51;19.77;;;10.65;;
13891;SDS011;7016;48.172;8.058;2023-03-15T07:44:16;19.38;;;9.82;;
13891;SDS011;7016;48.172;8.058;2023-03-15T07:46:42;23.50;;;11.15;;
13891;SDS011;7016;48.172;8.058;2023-03-15T07:49:08;27.33;;;13.38;;
13891;SDS011;7016;48.172;8.058;2023-03-15T07:51:34;24.20;;;11.35;;
13891;SDS011;7016;48.172;8.058;2023-03-15T07:53:59;27.67;;;14.05;;
13891;SDS011;7016;48.172;8.058;2023-03-15T07:56:25;27.35;;;12.82;;
13891;SDS011;7016;48.172;8.058;2023-03-15T07:58:50;25.80;;;12.48;;
13891;SDS011;7016;48.172;8.058;2023-03-15T08:01:16;22.80;;;10.27;;
13891;SDS011;7016;48.172;8.058;2023-03-15T08:03:42;23.20;;;7.97;;
13891;SDS011;7016;48.172;8.058;2023-03-15T08:06:07;19.05;;;8.55;;
13891;SDS011;7016;48.172;8.058;2023-03-15T08:08:33;18.67;;;7.50;;
13891;SDS011;7016;48.172;8.058;2023-03-15T08:10:59;15.93;;;6.70;;
13891;SDS011;7016;48.172;8.058;2023-03-15T08:13:25;14.60;;;5.70;;
13891;SDS011;7016;48.172;8.058;2023-03-15T08:15:50;12.80;;;4.50;;
13891;SDS011;7016;48.172;8.058;2023-03-15T08:18:16;11.18;;;3.83;;
13891;SDS011;7016;48.172;8.058;2023-03-15T08:20:41;9.35;;;3.13;;
13891;SDS011;7016;48.172;8.058;2023-03-15T08:23:07;9.32;;;3.30;;
13891;SDS011;7016;48.172;8.058;2023-03-15T08:25:34;11.82;;;4.03;;
13891;SDS011;7016;48.172;8.058;2023-03-15T08:28:04;6.20;;;2.63;;
13891;SDS011;7016;48.172;8.058;2023-03-15T08:30:30;10.10;;;2.80;;
13891;SDS011;7016;48.172;8.058;2023-03-15T08:32:55;11.23;;;2.92;;
13891;SDS011;7016;48.172;8.058;2023-03-15T08:35:22;9.40;;;2.95;;
13891;SDS011;7016;48.172;8.058;2023-03-15T08:37:49;9.60;;;2.80;;
13891;SDS011;7016;48.172;8.058;2023-03-15T08:40:16;11.70;;;3.42;;
13891;SDS011;7016;48.172;8.058;2023-03-15T08:42:50;11.35;;;3.20;;
13891;SDS011;7016;48.172;8.058;2023-03-15T08:45:17;7.32;;;2.85;;
13891;SDS011;7016;48.172;8.058;2023-03-15T08:47:43;8.20;;;2.90;;
13891;SDS011;7016;48.172;8.058;2023-03-15T08:50:12;10.60;;;2.55;;
13891;SDS011;7016;48.172;8.058;2023-03-15T08:52:39;7.90;;;2.58;;
13891;SDS011;7016;48.172;8.058;2023-03-15T08:55:05;11.38;;;4.35;;
13891;SDS011;7016;48.172;8.058;2023-03-15T08:57:31;7.18;;;2.58;;
13891;SDS011;7016;48.172;8.058;2023-03-15T09:00:03;8.38;;;3.22;;
13891;SDS011;7016;48.172;8.058;2023-03-15T09:02:33;34.33;;;16.10;;
13891;SDS011;7016;48.172;8.058;2023-03-15T09:04:59;7.57;;;2.83;;
13891;SDS011;7016;48.172;8.058;2023-03-15T09:07:25;8.57;;;3.42;;
13891;SDS011;7016;48.172;8.058;2023-03-15T09:09:51;7.60;;;3.30;;
13891;SDS011;7016;48.172;8.058;2023-03-15T09:12:18;9.43;;;3.30;;
13891;SDS011;7016;48.172;8.058;2023-03-15T09:14:45;10.57;;;3.88;;
13891;SDS011;7016;48.172;8.058;2023-03-15T09:17:10;7.47;;;2.60;;
13891;SDS011;7016;48.172;8.058;2023-03-15T09:19:36;7.53;;;2.85;;
13891;SDS011;7016;48.172;8.058;2023-03-15T09:22:03;6.35;;;3.05;;
13891;SDS011;7016;48.172;8.058;2023-03-15T09:24:29;7.93;;;3.88;;
13891;SDS011;7016;48.172;8.058;2023-03-15T09:26:55;8.35;;;3.05;;
13891;SDS011;7016;48.172;8.058;2023-03-15T09:29:21;5.50;;;3.05;;
13891;SDS011;7016;48.172;8.058;2023-03-15T09:31:46;8.07;;;2.20;;
13891;SDS011;7016;48.172;8.058;2023-03-15T09:34:12;9.45;;;2.65;;
13891;SDS011;7016;48.172;8.058;2023-03-15T09:36:37;8.90;;;4.30;;
13891;SDS011;7016;48.172;8.058;2023-03-15T09:39:03;6.72;;;2.80;;
13891;SDS011;7016;48.172;8.058;2023-03-15T09:41:51;6.45;;;2.40;;
13891;SDS011;7016;48.172;8.058;2023-03-15T09:47:23;3.78;;;1.85;;
13891;SDS011;7016;48.172;8.058;2023-03-15T09:52:59;6.30;;;2.83;;
13891;SDS011;7016;48.172;8.058;2023-03-15T09:55:29;4.53;;;2.20;;
13891;SDS011;7016;48.172;8.058;2023-03-15T09:57:56;9.93;;;2.80;;
13891;SDS011;7016;48.172;8.058;2023-03-15T10:00:39;5.03;;;1.95;;
13891;SDS011;7016;48.172;8.058;2023-03-15T10:06:01;3.70;;;1.50;;
13891;SDS011;7016;48.172;8.058;2023-03-15T10:08:31;3.33;;;1.60;;
13891;SDS011;7016;48.172;8.058;2023-03-15T10:11:11;5.13;;;1.40;;
13891;SDS011;7016;48.172;8.058;2023-03-15T10:24:59;6.60;;;2.25;;
13891;SDS011;7016;48.172;8.058;2023-03-15T10:27:47;2.90;;;1.17;;
13891;SDS011;7016;48.172;8.058;2023-03-15T10:30:21;4.93;;;1.55;;
13891;SDS011;7016;48.172;8.058;2023-03-15T10:32:53;5.05;;;1.50;;
13891;SDS011;7016;48.172;8.058;2023-03-15T10:35:25;4.75;;;1.20;;
13891;SDS011;7016;48.172;8.058;2023-03-15T10:37:52;4.07;;;1.25;;
13891;SDS011;7016;48.172;8.058;2023-03-15T10:43:26;2.17;;;1.15;;
13891;SDS011;7016;48.172;8.058;2023-03-15T10:48:33;1.80;;;1.10;;
13891;SDS011;7016;48.172;8.058;2023-03-15T10:51:04;4.72;;;0.90;;
13891;SDS011;7016;48.172;8.058;2023-03-15T10:59:20;6.57;;;1.52;;
13891;SDS011;7016;48.172;8.058;2023-03-15T11:01:50;4.13;;;1.20;;
13891;SDS011;7016;48.172;8.058;2023-03-15T11:04:19;6.25;;;2.70;;
13891;SDS011;7016;48.172;8.058;2023-03-15T11:09:23;4.82;;;1.83;;
13891;SDS011;7016;48.172;8.058;2023-03-15T11:11:58;5.15;;;1.20;;
13891;SDS011;7016;48.172;8.058;2023-03-15T11:14:27;2.85;;;1.45;;
13891;SDS011;7016;48.172;8.058;2023-03-15T11:16:58;3.63;;;1.20;;
13891;SDS011;7016;48.172;8.058;2023-03-15T11:19:25;2.53;;;1.00;;
13891;SDS011;7016;48.172;8.058;2023-03-15T11:21:53;3.28;;;1.10;;
13891;SDS011;7016;48.172;8.058;2023-03-15T11:24:28;4.13;;;1.00;;
13891;SDS011;7016;48.172;8.058;2023-03-15T11:29:27;4.97;;;1.70;;
13891;SDS011;7016;48.172;8.058;2023-03-15T11:32:02;1.45;;;0.90;;
13891;SDS011;7016;48.172;8.058;2023-03-15T11:37:40;3.38;;;1.50;;
13891;SDS011;7016;48.172;8.058;2023-03-15T11:45:35;4.53;;;1.70;;
13891;SDS011;7016;48.172;8.058;2023-03-15T11:51:15;4.13;;;1.20;;
13891;SDS011;7016;48.172;8.058;2023-03-15T11:53:46;3.35;;;1.27;;
13891;SDS011;7016;48.172;8.058;2023-03-15T12:01:50;4.82;;;1.55;;
13891;SDS011;7016;48.172;8.058;2023-03-15T12:06:54;2.15;;;1.10;;
13891;SDS011;7016;48.172;8.058;2023-03-15T12:12:02;2.40;;;1.10;;
13891;SDS011;7016;48.172;8.058;2023-03-15T12:17:43;2.30;;;1.00;;
13891;SDS011;7016;48.172;8.058;2023-03-15T12:22:48;2.70;;;1.10;;
13891;SDS011;7016;48.172;8.058;2023-03-15T12:25:18;1.60;;;1.00;;
13891;SDS011;7016;48.172;8.058;2023-03-15T12:27:54;6.82;;;1.45;;
13891;SDS011;7016;48.172;8.058;2023-03-15T12:30:32;2.33;;;1.10;;
13891;SDS011;7016;48.172;8.058;2023-03-15T12:33:02;3.90;;;1.10;;
13891;SDS011;7016;48.172;8.058;2023-03-15T12:35:36;2.28;;;0.93;;
13891;SDS011;7016;48.172;8.058;2023-03-15T12:38:08;3.85;;;1.30;;
13891;SDS011;7016;48.172;8.058;2023-03-15T12:40:52;3.55;;;1.40;;
13891;SDS011;7016;48.172;8.058;2023-03-15T12:46:04;1.65;;;0.90;;
13891;SDS011;7016;48.172;8.058;2023-03-15T12:48:30;3.70;;;1.20;;
13891;SDS011;7016;48.172;8.058;2023-03-15T12:50:57;2.72;;;1.10;;
13891;SDS011;7016;48.172;8.058;2023-03-15T12:56:24;3.28;;;1.45;;
13891;SDS011;7016;48.172;8.058;2023-03-15T12:58:55;5.90;;;2.85;;
13891;SDS011;7016;48.172;8.058;2023-03-15T13:01:39;5.90;;;3.08;;
13891;SDS011;7016;48.172;8.058;2023-03-15T13:04:07;11.85;;;4.20;;
13891;SDS011;7016;48.172;8.058;2023-03-15T13:17:30;2.97;;;1.27;;
13891;SDS011;7016;48.172;8.058;2023-03-15T13:28:36;2.95;;;1.40;;
13891;SDS011;7016;48.172;8.058;2023-03-15T13:33:50;2.70;;;1.02;;
13891;SDS011;7016;48.172;8.058;2023-03-15T13:36:44;3.53;;;1.17;;
13891;SDS011;7016;48.172;8.058;2023-03-15T13:39:15;1.85;;;0.88;;
13891;SDS011;7016;48.172;8.058;2023-03-15T13:41:47;2.63;;;0.90;;
13891;SDS011;7016;48.172;8.058;2023-03-15T13:44:20;3.08;;;1.00;;
13891;SDS011;7016;48.172;8.058;2023-03-15T13:46:48;3.60;;;1.55;;
13891;SDS011;7016;48.172;8.058;2023-03-15T13:49:14;3.50;;;1.05;;
13891;SDS011;7016;48.172;8.058;2023-03-15T13:51:40;3.28;;;1.15;;
13891;SDS011;7016;48.172;8.058;2023-03-15T13:54:10;4.25;;;1.30;;
13891;SDS011;7016;48.172;8.058;2023-03-15T13:59:37;2.58;;;1.10;;
13891;SDS011;7016;48.172;8.058;2023-03-15T14:02:20;4.68;;;1.50;;
13891;SDS011;7016;48.172;8.058;2023-03-15T14:04:56;6.25;;;1.48;;
13891;SDS011;7016;48.172;8.058;2023-03-15T14:07:27;2.28;;;1.27;;
13891;SDS011;7016;48.172;8.058;2023-03-15T14:15:48;1.73;;;1.10;;
13891;SDS011;7016;48.172;8.058;2023-03-15T14:18:23;1.83;;;0.90;;
13891;SDS011;7016;48.172;8.058;2023-03-15T14:23:23;8.38;;;5.40;;
13891;SDS011;7016;48.172;8.058;2023-03-15T14:28:29;4.38;;;1.10;;
13891;SDS011;7016;48.172;8.058;2023-03-15T14:30:56;5.47;;;2.80;;
13891;SDS011;7016;48.172;8.058;2023-03-15T14:35:57;4.60;;;1.60;;
13891;SDS011;7016;48.172;8.058;2023-03-15T14:38:25;6.30;;;1.58;;
13891;SDS011;7016;48.172;8.058;2023-03-15T14:41:06;3.17;;;1.20;;
13891;SDS011;7016;48.172;8.058;2023-03-15T14:43:43;10.32;;;3.92;;
13891;SDS011;7016;48.172;8.058;2023-03-15T14:46:08;1.65;;;1.02;;
13891;SDS011;7016;48.172;8.058;2023-03-15T14:48:34;2.85;;;1.40;;
13891;SDS011;7016;48.172;8.058;2023-03-15T14:51:00;3.47;;;0.85;;
13891;SDS011;7016;48.172;8.058;2023-03-15T14:53:29;2.83;;;1.20;;
13891;SDS011;7016;48.172;8.058;2023-03-15T14:56:01;6.40;;;3.10;;
13891;SDS011;7016;48.172;8.058;2023-03-15T14:58:28;4.13;;;2.63;;
13891;SDS011;7016;48.172;8.058;2023-03-15T15:00:54;2.97;;;2.00;;
13891;SDS011;7016;48.172;8.058;2023-03-15T15:03:28;2.33;;;1.30;;
13891;SDS011;7016;48.172;8.058;2023-03-15T15:06:04;5.75;;;1.50;;
13891;SDS011;7016;48.172;8.058;2023-03-15T15:08:33;4.32;;;1.73;;
13891;SDS011;7016;48.172;8.058;2023-03-15T15:11:03;2.15;;;1.65;;
13891;SDS011;7016;48.172;8.058;2023-03-15T15:13:33;2.83;;;1.48;;
13891;SDS011;7016;48.172;8.058;2023-03-15T15:15:59;6.80;;;1.58;;
13891;SDS011;7016;48.172;8.058;2023-03-15T15:18:29;2.38;;;1.20;;
13891;SDS011;7016;48.172;8.058;2023-03-15T15:20:57;2.58;;;1.20;;
13891;SDS011;7016;48.172;8.058;2023-03-15T15:23:29;4.03;;;1.63;;
13891;SDS011;7016;48.172;8.058;2023-03-15T15:26:04;2.20;;;1.30;;
13891;SDS011;7016;48.172;8.058;2023-03-15T15:28:31;2.50;;;1.30;;
13891;SDS011;7016;48.172;8.058;2023-03-15T15:30:58;2.55;;;1.27;;
13891;SDS011;7016;48.172;8.058;2023-03-15T15:33:24;2.35;;;1.10;;
13891;SDS011;7016;48.172;8.058;2023-03-15T15:35:51;3.95;;;1.33;;
13891;SDS011;7016;48.172;8.058;2023-03-15T15:38:19;2.40;;;1.50;;
13891;SDS011;7016;48.172;8.058;2023-03-15T15:40:48;7.22;;;3.72;;
13891;SDS011;7016;48.172;8.058;2023-03-15T15:43:14;3.97;;;1.83;;
13891;SDS011;7016;48.172;8.058;2023-03-15T15:45:39;4.93;;;1.40;;
13891;SDS011;7016;48.172;8.058;2023-03-15T15:48:05;4.70;;;1.98;;
13891;SDS011;7016;48.172;8.058;2023-03-15T15:50:32;4.30;;;1.70;;
13891;SDS011;7016;48.172;8.058;2023-03-15T15:53:00;2.88;;;1.33;;
13891;SDS011;7016;48.172;8.058;2023-03-15T15:55:28;5.13;;;1.10;;
13891;SDS011;7016;48.172;8.058;2023-03-15T15:57:57;6.20;;;1.20;;
13891;SDS011;7016;48.172;8.058;2023-03-15T16:00:25;3.95;;;1.23;;
13891;SDS011;7016;48.172;8.058;2023-03-15T16:02:52;3.30;;;1.40;;
13891;SDS011;7016;48.172;8.058;2023-03-15T16:05:26;3.22;;;1.20;;
13891;SDS011;7016;48.172;8.058;2023-03-15T16:07:55;4.72;;;1.80;;
13891;SDS011;7016;48.172;8.058;2023-03-15T16:10:25;5.60;;;1.30;;
13891;SDS011;7016;48.172;8.058;2023-03-15T16:12:54;5.60;;;1.65;;
13891;SDS011;7016;48.172;8.058;2023-03-15T16:15:21;2.72;;;1.15;;
13891;SDS011;7016;48.172;8.058;2023-03-15T16:17:47;4.82;;;1.63;;
13891;SDS011;7016;48.172;8.058;2023-03-15T16:20:14;3.03;;;1.20;;
13891;SDS011;7016;48.172;8.058;2023-03-15T16:22:41;4.55;;;1.70;;
13891;SDS011;7016;48.172;8.058;2023-03-15T16:25:15;4.03;;;1.30;;
13891;SDS011;7016;48.172;8.058;2023-03-15T16:27:47;4.30;;;1.38;;
13891;SDS011;7016;48.172;8.058;2023-03-15T16:30:18;5.88;;;1.60;;
13891;SDS011;7016;48.172;8.058;2023-03-15T16:32:50;2.38;;;1.20;;
13891;SDS011;7016;48.172;8.058;2023-03-15T16:35:19;4.85;;;1.50;;
13891;SDS011;7016;48.172;8.058;2023-03-15T16:37:46;3.53;;;1.70;;
13891;SDS011;7016;48.172;8.058;2023-03-15T16:42:49;6.20;;;1.58;;
13891;SDS011;7016;48.172;8.058;2023-03-15T16:45:15;4.85;;;1.52;;
13891;SDS011;7016;48.172;8.058;2023-03-15T16:47:41;3.25;;;1.30;;
13891;SDS011;7016;48.172;8.058;2023-03-15T16:50:06;4.80;;;1.60;;
13891;SDS011;7016;48.172;8.058;2023-03-15T16:52:32;2.75;;;1.45;;
13891;SDS011;7016;48.172;8.058;2023-03-15T16:54:58;5.93;;;1.90;;
13891;SDS011;7016;48.172;8.058;2023-03-15T16:57:25;5.10;;;1.70;;
13891;SDS011;7016;48.172;8.058;2023-03-15T16:59:51;6.05;;;1.40;;
13891;SDS011;7016;48.172;8.058;2023-03-15T17:02:21;3.83;;;1.45;;
13891;SDS011;7016;48.172;8.058;2023-03-15T17:04:48;5.38;;;1.77;;
13891;SDS011;7016;48.172;8.058;2023-03-15T17:07:15;4.03;;;1.60;;